»·PEaware :: AAY591 KOXR-KLAS

AAY591 :: KOXR-KLAS

FLIGHT INFORMATION

Flight Status: Arrived
Operator:
Allegiant Air
More flights by this operator :: More flights under this callsign
Pilot: Ryan B. (8502)
Aircraft: MCDONNELL-DOUGLAS MD-88
(MD88)
More flights by this aircraft type
Origin: KOXR Oxnard
United States
Destination: KLAS Harry Reid Intl
United States
More flights between these airports :: More routes between these airports
Route: CMA6 GINNA HELDE MISEN RNDRZ1
File this flight plan on PilotEdge
Remarks:
Altitude:
(Current/Filed)
29,000ft
Speed:
(Current/Filed)
400kts
Departed: 04-Sep-21 08:56 PM
Arrived: 04-Sep-21 09:40 PM
Distance/Time
Traveled:
229nm/0:44
Distance/Time
To Go:
Arrived

Flight Plot

Page will automatically refresh every two minutes.

Flight plan parsing failed; only flown route is shown


Map Options




Map Legend


Flown Route
Filed Route
Departure Airport
Arrival Airport
Navaid (VOR, NDB)
Fix

Horizontal Profiles

Position Reports

Time Latitude Longitude Heading Altitude Ground
Speed
04-Sep-21 20:39 34.198878 -119.205657 360 41ft 0kts
04-Sep-21 20:40 34.198878 -119.205657 360 41ft 0kts
04-Sep-21 20:41 34.198878 -119.205657 360 41ft 0kts
04-Sep-21 20:42 34.198878 -119.205657 360 41ft 0kts
04-Sep-21 20:43 34.198878 -119.205657 360 41ft 0kts
04-Sep-21 20:44 34.198878 -119.205657 360 41ft 0kts
04-Sep-21 20:45 34.198878 -119.205657 360 41ft 0kts
04-Sep-21 20:46 34.198878 -119.205657 360 41ft 0kts
04-Sep-21 20:47 34.198878 -119.205657 360 41ft 0kts
04-Sep-21 20:48 34.198878 -119.205657 360 41ft 0kts
04-Sep-21 20:49 34.198878 -119.205657 360 41ft 0kts
04-Sep-21 20:50 34.198878 -119.205657 359 41ft 0kts
04-Sep-21 20:51 34.198878 -119.205657 359 41ft 0kts
04-Sep-21 20:52 34.198959 -119.205658 359 41ft 4kts
04-Sep-21 20:53 34.199741 -119.202541 90 42ft 18kts
04-Sep-21 20:54 34.200282 -119.197540 354 46ft 6kts
04-Sep-21 20:55 34.200809 -119.208880 270 40ft 150kts
04-Sep-21 20:56 34.197720 -119.272961 267 3067ft 207kts
04-Sep-21 20:57 34.188949 -119.342158 262 5891ft 233kts
04-Sep-21 20:58 34.143870 -119.373873 134 9084ft 250kts
04-Sep-21 20:59 34.157452 -119.295775 59 11440ft 290kts
04-Sep-21 21:00 34.205112 -119.203351 59 13404ft 355kts
04-Sep-21 21:01 34.258387 -119.098409 59 16606ft 378kts
04-Sep-21 21:02 34.313815 -118.987232 59 19417ft 396kts
04-Sep-21 21:03 34.366891 -118.879446 58 21739ft 410kts
04-Sep-21 21:04 34.425556 -118.758386 58 23817ft 427kts
04-Sep-21 21:05 34.486294 -118.631798 58 25700ft 441kts
04-Sep-21 21:06 34.548903 -118.501069 58 27361ft 455kts
04-Sep-21 21:07 34.612836 -118.367076 61 28805ft 466kts
04-Sep-21 21:08 34.650168 -118.215601 81 28941ft 473kts
04-Sep-21 21:09 34.667827 -118.056747 81 28946ft 474kts
04-Sep-21 21:10 34.685112 -117.897851 81 29012ft 476kts
04-Sep-21 21:11 34.712646 -117.741590 68 29061ft 476kts
04-Sep-21 21:12 34.756864 -117.590104 69 29043ft 476kts
04-Sep-21 21:13 34.800970 -117.438515 68 29038ft 476kts
04-Sep-21 21:14 34.844614 -117.287072 69 29016ft 465kts
04-Sep-21 21:15 34.887615 -117.138248 69 29028ft 469kts
04-Sep-21 21:16 34.931094 -116.988320 68 29018ft 471kts
04-Sep-21 21:17 34.974838 -116.838095 68 29008ft 471kts
04-Sep-21 21:18 35.018770 -116.687893 68 29015ft 471kts
04-Sep-21 21:19 35.062958 -116.537430 68 29018ft 471kts
04-Sep-21 21:20 35.113367 -116.390709 51 29024ft 467kts
04-Sep-21 21:21 35.201833 -116.275002 43 27760ft 465kts
04-Sep-21 21:22 35.286936 -116.160707 45 25237ft 443kts
04-Sep-21 21:23 35.366999 -116.050737 45 22527ft 425kts
04-Sep-21 21:24 35.443664 -115.944920 45 20006ft 407kts
04-Sep-21 21:25 35.516617 -115.844275 46 17857ft 383kts
04-Sep-21 21:26 35.585082 -115.749584 47 16024ft 358kts
04-Sep-21 21:27 35.647652 -115.664841 46 15011ft 320kts
04-Sep-21 21:28 35.706568 -115.585189 46 13741ft 311kts
04-Sep-21 21:29 35.774449 -115.522695 28 13028ft 300kts
04-Sep-21 21:30 35.840614 -115.476902 29 12969ft 273kts
04-Sep-21 21:31 35.907237 -115.430274 29 12119ft 278kts
04-Sep-21 21:32 35.974502 -115.383286 29 11214ft 275kts
04-Sep-21 21:33 36.017546 -115.315909 97 10322ft 264kts
04-Sep-21 21:34 36.009711 -115.227464 94 9591ft 252kts
04-Sep-21 21:35 36.004438 -115.143476 93 8267ft 238kts
04-Sep-21 21:36 36.007001 -115.064781 47 6208ft 233kts
04-Sep-21 21:37 36.063484 -115.058582 343 4876ft 175kts
04-Sep-21 21:38 36.073649 -115.108673 269 2620ft 149kts
04-Sep-21 21:39 36.073834 -115.143353 286 2185ft 37kts
04-Sep-21 21:40 36.075544 -115.146491 354 2185ft 12kts

Navigation Log

Ident Type
Flight plan parsing failed, navigation log unavailable